Map

Track Data

SID SEASON NUMBER BASIN SUBBASIN NAME ISO_TIME NATURE LAT LON WMO_WIND WMO_PRES WMO_AGENCY TRACK_TYPE DIST2LAND LANDFALL IFLAG USA_AGENCY USA_ATCF_ID USA_LAT USA_LON USA_RECORD USA_STATUS USA_WIND USA_PRES USA_SSHS USA_R34_NE USA_R34_SE USA_R34_SW USA_R34_NW USA_R50_NE USA_R50_SE USA_R50_SW USA_R50_NW USA_R64_NE USA_R64_SE USA_R64_SW USA_R64_NW USA_POCI USA_ROCI USA_RMW USA_EYE TOKYO_LAT TOKYO_LON TOKYO_GRADE TOKYO_WIND TOKYO_PRES TOKYO_R50_DIR TOKYO_R50_LONG TOKYO_R50_SHORT TOKYO_R30_DIR TOKYO_R30_LONG TOKYO_R30_SHORT TOKYO_LAND CMA_LAT CMA_LON CMA_CAT CMA_WIND CMA_PRES HKO_LAT HKO_LON HKO_CAT HKO_WIND HKO_PRES NEWDELHI_LAT NEWDELHI_LON NEWDELHI_GRADE NEWDELHI_WIND NEWDELHI_PRES NEWDELHI_CI NEWDELHI_DP NEWDELHI_POCI REUNION_LAT REUNION_LON REUNION_TYPE REUNION_WIND REUNION_PRES REUNION_TNUM REUNION_CI REUNION_RMW REUNION_R34_NE REUNION_R34_SE REUNION_R34_SW REUNION_R34_NW REUNION_R50_NE REUNION_R50_SE REUNION_R50_SW REUNION_R50_NW REUNION_R64_NE REUNION_R64_SE REUNION_R64_SW REUNION_R64_NW BOM_LAT BOM_LON BOM_TYPE BOM_WIND BOM_PRES BOM_TNUM BOM_CI BOM_RMW BOM_R34_NE BOM_R34_SE BOM_R34_SW BOM_R34_NW BOM_R50_NE BOM_R50_SE BOM_R50_SW BOM_R50_NW BOM_R64_NE BOM_R64_SE BOM_R64_SW BOM_R64_NW BOM_ROCI BOM_POCI BOM_EYE BOM_POS_METHOD BOM_PRES_METHOD NADI_LAT NADI_LON NADI_CAT NADI_WIND NADI_PRES WELLINGTON_LAT WELLINGTON_LON WELLINGTON_WIND WELLINGTON_PRES DS824_LAT DS824_LON DS824_STAGE DS824_WIND DS824_PRES TD9636_LAT TD9636_LON TD9636_STAGE TD9636_WIND TD9636_PRES TD9635_LAT TD9635_LON TD9635_WIND TD9635_PRES TD9635_ROCI NEUMANN_LAT NEUMANN_LON NEUMANN_CLASS NEUMANN_WIND NEUMANN_PRES MLC_LAT MLC_LON MLC_CLASS MLC_WIND MLC_PRES USA_GUST BOM_GUST BOM_GUST_PER REUNION_GUST REUNION_GUST_PER USA_SEAHGT USA_SEARAD_NE USA_SEARAD_SE USA_SEARAD_SW USA_SEARAD_NW STORM_SPEED STORM_DIR
1950308N13151 1950 104 WP MM BILLIE 1950-11-04 06:00:00 TS 13.0000 150.800 main 1732 1730 __O___________ -1 13.0000 150.800 1 29 1005 11 301
1950308N13151 1950 104 WP MM BILLIE 1950-11-04 09:00:00 TS 13.2851 150.308 main 1754 1752 __P___________ -1 13.2851 150.308 1 33 1002 11 302
1950308N13151 1950 104 WP MM BILLIE 1950-11-04 12:00:00 TS 13.6000 149.800 main 1778 1777 __O___________ -1 13.6000 149.800 2 38 1000 12 304
1950308N13151 1950 104 WP MM BILLIE 1950-11-04 15:00:00 TS 13.9575 149.278 main 1815 1814 __P___________ -1 13.9575 149.278 2 43 997 12 306
1950308N13151 1950 104 WP MM BILLIE 1950-11-04 18:00:00 TS 14.3000 148.800 main 1843 1842 __O___________ -1 14.3000 148.800 3 48 995 10 306
1950308N13151 1950 104 WP MM BILLIE 1950-11-04 21:00:00 TS 14.5573 148.435 main 1874 1874 __P___________ -1 14.5573 148.435 3 53 992 8 316
1950308N13151 1950 104 WP MM BILLIE 1950-11-05 00:00:00 TS 14.9000 148.200 main 1906 1906 O_O______OOO__ jtwc_wp WP151950 15.0000 148.300 50 0 14.8000 148.100 3 58 990 15.0000 148.300 TC 50 15.0000 148.300 2 50 15.0000 148.300 50 991 180 8 317
1950308N13151 1950 104 WP MM BILLIE 1950-11-05 03:00:00 TS 15.1621 147.847 main 1938 1938 P_P______PPP__ WP151950 15.1976 147.920 57 0 15.0999 147.722 3 63 987 15.1976 147.920 TC 57 15.1799 147.879 2 57 15.1976 147.920 57 990 150 9 304
1950308N13151 1950 104 WP MM BILLIE 1950-11-05 06:00:00 TS 15.3958 147.440 main 1960 1960 O_O______OPO__ jtwc_wp WP151950 15.4000 147.500 65 1 15.4000 147.300 4 68 985 15.4000 147.500 TC 65 15.3775 147.447 2 65 15.4000 147.500 65 990 120 10 299
1950308N13151 1950 104 WP MM BILLIE 1950-11-05 09:00:00 TS 15.6228 146.969 main 1982 1982 P_P______PPP__ WP151950 15.6200 147.015 72 1 15.6425 146.807 4 68 985 15.6200 147.015 TC 72 15.6114 146.991 2 72 15.6200 147.015 72 989 120 11 298
1950308N13151 1950 104 WP MM BILLIE 1950-11-05 12:00:00 TS 15.9000 146.460 main 2016 2016 O_O______OOO__ jtwc_wp WP151950 15.9000 146.500 80 1 15.9000 146.300 4 68 985 15.9000 146.500 TC 80 15.9000 146.500 3 80 15.9000 146.500 80 989 120 12 303
1950308N13151 1950 104 WP MM BILLIE 1950-11-05 15:00:00 TS 16.2556 145.961 main 2062 2062 P_P______PPP__ WP151950 16.2699 146.000 80 1 16.2124 145.835 4 68 985 16.2699 146.000 TC 80 16.2558 145.970 3 78 16.2699 146.000 80 988 120 12 309
1950308N13151 1950 104 WP MM BILLIE 1950-11-05 18:00:00 TS 16.6737 145.467 main 2102 2039 O_O______OPO__ jtwc_wp WP151950 16.7000 145.500 80 1 16.6000 145.400 4 68 985 16.7000 145.500 TC 80 16.6683 145.434 3 77 16.7000 145.500 80 987 120 13 312
1950308N13151 1950 104 WP MM BILLIE 1950-11-05 21:00:00 TS 17.1268 144.963 main 2039 1966 P_P______PPP__ WP151950 17.1426 144.970 77 1 17.0850 144.978 4 68 985 17.1426 144.970 TC 77 17.1215 144.930 3 76 17.1426 144.970 77 986 120 13 316
1950308N13151 1950 104 WP MM BILLIE 1950-11-06 00:00:00 TS 17.6000 144.520 main 1966 1912 O_O______OOO__ jtwc_wp WP151950 17.6000 144.500 75 1 17.6000 144.600 4 68 985 17.6000 144.500 TC 75 17.6000 144.500 4 75 17.6000 144.500 75 986 120 12 321
1950308N13151 1950 104 WP MM BILLIE 1950-11-06 03:00:00 TS 18.0457 144.170 main 1912 1848 P_P______PPP__ WP151950 18.0349 144.147 75 1 18.0499 144.270 4 68 985 18.0349 144.147 TC 75 18.0738 144.139 4 75 18.0349 144.147 75 985 120 11 328
1950308N13151 1950 104 WP MM BILLIE 1950-11-06 06:00:00 TS 18.5139 143.913 main 1848 1789 O_O______OPO__ jtwc_wp WP151950 18.5000 143.900 75 1 18.5000 144.000 4 68 985 18.5000 143.900 TC 75 18.5694 143.863 4 75 18.5000 143.900 75 985 120 11 336
1950308N13151 1950 104 WP MM BILLIE 1950-11-06 09:00:00 TS 19.0340 143.709 main 1789 1733 P_P______PPP__ WP151950 19.0350 143.698 75 1 18.9850 143.770 4 68 985 19.0350 143.698 TC 75 19.0802 143.680 4 75 19.0350 143.698 75 987 150 11 344
1950308N13151 1950 104 WP MM BILLIE 1950-11-06 12:00:00 TS 19.5800 143.600 main 1723 1673 O_O______OOO__ jtwc_wp WP151950 19.6000 143.600 75 1 19.5000 143.600 4 68 985 19.6000 143.600 TC 75 19.6000 143.600 4 75 19.6000 143.600 75 990 180 11 353
1950308N13151 1950 104 WP MM BILLIE 1950-11-06 15:00:00 TS 20.1376 143.569 main 1673 1613 P_P______PPP__ WP151950 20.1574 143.597 72 1 20.0575 143.455 4 68 985 20.1574 143.597 TC 72 20.1581 143.599 4 71 20.1574 143.597 72 993 180 11 2
1950308N13151 1950 104 WP MM BILLIE 1950-11-06 18:00:00 TS 20.6834 143.640 main 1613 1573 O_O______OPO__ jtwc_wp WP151950 20.7000 143.700 70 1 20.6000 143.400 4 68 985 20.7000 143.700 TC 70 20.7171 143.699 4 67 20.7000 143.700 70 997 180 11 11
1950308N13151 1950 104 WP MM BILLIE 1950-11-06 21:00:00 TS 21.2160 143.791 main 1573 1534 P_P______PPP__ WP151950 21.2525 143.877 65 1 21.0799 143.447 4 68 985 21.2525 143.877 TC 65 21.2426 143.874 4 63 21.2525 143.877 65 997 180 10 19
1950308N13151 1950 104 WP MM BILLIE 1950-11-07 00:00:00 TS 21.6600 144.000 main 1526 1507 O_O______OOO__ jtwc_wp WP151950 21.7000 144.100 60 0 21.5000 143.600 4 68 985 21.7000 144.100 TC 60 21.7000 144.100 2 60 21.7000 144.100 60 998 180 8 27
1950308N13151 1950 104 WP MM BILLIE 1950-11-07 03:00:00 TS 21.9365 144.193 main 1510 1491 P_P______PPP__ WP151950 21.9224 144.278 60 0 21.8725 143.813 4 68 985 21.9224 144.278 TC 60 22.0427 144.320 2 58 21.9224 144.278 60 995 210 6 39
1950308N13151 1950 104 WP MM BILLIE 1950-11-07 06:00:00 TS 22.1635 144.437 main 1483 1460 O_O______OPO__ jtwc_wp WP151950 22.1000 144.500 60 0 22.2000 144.100 4 68 985 22.1000 144.500 TC 60 22.3174 144.583 2 57 22.1000 144.500 60 992 240 8 44
1950308N13151 1950 104 WP MM BILLIE 1950-11-07 09:00:00 TS 22.4742 144.756 main 1463 1441 P_P______PPP__ WP151950 22.4350 144.820 57 0 22.5076 144.443 4 63 986 22.4350 144.820 TC 57 22.5583 144.880 2 56 22.4350 144.820 57 993 180 9 45
1950308N13151 1950 104 WP MM BILLIE 1950-11-07 12:00:00 TS 22.8000 145.120 main 1441 1420 O_O______OOO__ jtwc_wp WP151950 22.8000 145.200 55 0 22.8000 144.800 3 58 987 22.8000 145.200 TC 55 22.8000 145.200 2 55 22.8000 145.200 55 994 120 9 47
1950308N13151 1950 104 WP MM BILLIE 1950-11-07 15:00:00 TS 23.0969 145.478 main 1424 1404 P_P______PPP__ WP151950 23.1076 145.608 52 0 23.1148 145.093 3 53 988 23.1076 145.608 TC 52 23.0470 145.474 2 52 23.1076 145.608 52 994 120 9 49
1950308N13151 1950 104 WP MM BILLIE 1950-11-07 18:00:00 TS 23.3816 145.835 main 1404 1392 O_O______OPO__ jtwc_wp WP151950 23.4000 146.000 50 0 23.4000 145.400 3 48 989 23.4000 146.000 TC 50 23.3082 145.777 2 50 23.4000 146.000 50 995 120 8 48
1950308N13151 1950 104 WP MM BILLIE 1950-11-07 21:00:00 TS 23.6431 146.134 main 1396 1378 P_P______PPP__ WP151950 23.6694 146.264 47 0 23.5921 145.741 3 48 989 23.6694 146.264 TC 47 23.6153 146.141 2 47 23.6694 146.264 47 995 150 9 47
1950308N13151 1950 104 WP MM BILLIE 1950-11-08 00:00:00 TS 23.9600 146.520 main 1372 1361 O_O______OOO__ jtwc_wp WP151950 24.0000 146.600 45 0 23.8000 146.200 3 48 990 24.0000 146.600 TC 45 24.0000 146.600 2 45 24.0000 146.600 45 996 180 12 50
1950308N13151 1950 104 WP MM BILLIE 1950-11-08 03:00:00 TS 24.3926 147.109 main 1361 1348 P_P______PPP__ WP151950 24.4476 147.183 40 0 24.1194 146.803 3 48 990 24.4476 147.183 TC 40 24.5008 147.194 2 43 24.4476 147.183 40 997 180 15 51
1950308N13151 1950 104 WP MM BILLIE 1950-11-08 06:00:00 TS 24.9152 147.837 main 1349 1334 O_O______OPO__ jtwc_wp WP151950 25.0000 147.900 35 0 24.5000 147.600 3 48 990 25.0000 147.900 TC 35 25.0761 147.886 2 42 25.0000 147.900 35 998 180 18 51
1950308N13151 1950 104 WP MM BILLIE 1950-11-08 09:00:00 TS 25.4999 148.619 main 1336 1328 P_P______PPP__ WP151950 25.6347 148.628 37 0 24.9072 148.575 3 48 990 25.6347 148.628 TC 37 25.6881 148.635 2 41 25.6347 148.628 37 998 210 19 51
1950308N13151 1950 104 WP MM BILLIE 1950-11-08 12:00:00 TS 26.1000 149.460 main 1335 1328 O_O______OOO__ jtwc_wp WP151950 26.3000 149.400 40 0 25.3000 149.700 3 48 990 26.3000 149.400 TC 40 26.3000 149.400 2 40 26.3000 149.400 40 999 240 19 53
1950308N13151 1950 104 WP MM BILLIE 1950-11-08 15:00:00 TS 26.6559 150.328 main 1335 1335 P_P______PPP__ WP151950 26.9225 150.215 40 0 25.6288 150.848 3 48 990 26.9225 150.215 TC 40 26.8832 150.146 2 38 26.9225 150.215 40 1000 240 19 58
1950308N13151 1950 104 WP MM BILLIE 1950-11-08 18:00:00 TS 27.0885 151.251 main 1372 1372 O_O______OPO__ jtwc_wp WP151950 27.5000 151.000 40 0 25.9000 152.100 3 48 990 27.5000 151.000 TC 40 27.4388 150.872 2 37 27.5000 151.000 40 1001 240 19 67
1950308N13151 1950 104 WP MM BILLIE 1950-11-08 21:00:00 TS 27.3836 152.257 main 1419 1419 P_P______PPP__ WP151950 28.0177 151.682 37 0 26.1365 153.455 3 43 990 28.0177 151.682 TC 37 27.9752 151.587 2 36 28.0177 151.682 37 1001 210 21 82
1950308N13151 1950 104 WP MM BILLIE 1950-11-09 00:00:00 TS 27.4000 153.600 main 1514 1514 O_O______OOO__ jtwc_wp WP151950 28.5000 152.300 35 0 26.3000 154.900 2 38 990 28.5000 152.300 TC 35 28.5000 152.300 2 35 28.5000 152.300 35 1002 180 38 106
1950308N13151 1950 104 WP MM BILLIE 1950-11-09 03:00:00 TS 26.3337 156.380 main 1806 1806 __P___________ WP151950 -1 26.3337 156.380 2 38 990 TC 2 40 105
1950308N13151 1950 104 WP MM BILLIE 1950-11-09 06:00:00 TS 26.4000 157.900 main 1916 1916 __O___________ -1 26.4000 157.900 2 38 990 2 27 83
1950308N13151 1950 104 WP MM BILLIE 1950-11-09 09:00:00 TS 26.6531 159.427 main 2018 2018 __P___________ -1 26.6531 159.427 2 38 991 2 28 78
1950308N13151 1950 104 WP MM BILLIE 1950-11-09 12:00:00 ET 27.0000 161.000 main 2132 2132 __O___________ -1 27.0000 161.000 9 38 992 30 76
1950308N13151 1950 104 WP MM BILLIE 1950-11-09 15:00:00 ET 27.3651 162.679 main 2253 2253 __P___________ -1 27.3651 162.679 9 993 30 77
1950308N13151 1950 104 WP MM BILLIE 1950-11-09 18:00:00 ET 27.7000 164.300 main 2371 2371 __O___________ -1 27.7000 164.300 9 994 27 79
1950308N13151 1950 104 WP MM BILLIE 1950-11-09 21:00:00 ET 27.8891 165.675 main 2420 2420 __P___________ -1 27.8891 165.675 9 994 24 80
1950308N13151 1950 104 WP MM BILLIE 1950-11-10 00:00:00 ET 28.1000 167.000 main 2470 2470 __O___________ -1 28.1000 167.000 9 995 26 77
1950308N13151 1950 104 WP MM BILLIE 1950-11-10 03:00:00 ET 28.4623 168.500 main 2513 2513 __P___________ -1 28.4623 168.500 9 996 28 73
1950308N13151 1950 104 WP MM BILLIE 1950-11-10 06:00:00 ET 28.9000 170.000 main 2561 2561 __O___________ -1 28.9000 170.000 9 998 27 71
1950308N13151 1950 104 WP MM BILLIE 1950-11-10 09:00:00 ET 29.3177 171.367 main 2609 2606 __P___________ -1 29.3177 171.367 9 999 25 69
1950308N13151 1950 104 WP MM BILLIE 1950-11-10 12:00:00 ET 29.8000 172.700 main 2646 2646 __O___________ -1 29.8000 172.700 9 1000 26 66
1950308N13151 1950 104 WP MM BILLIE 1950-11-10 15:00:00 ET 30.3622 174.123 main 2671 2651 __P___________ -1 30.3622 174.123 9 1000 27 64
1950308N13151 1950 104 WP MM BILLIE 1950-11-10 18:00:00 ET 31.0000 175.500 main 2645 2557 __O___________ -1 31.0000 175.500 9 1000 26 59
1950308N13151 1950 104 WP MM BILLIE 1950-11-10 21:00:00 ET 31.6888 176.739 main 2561 2487 __P___________ -1 31.6888 176.739 9 1000 25 56
1950308N13151 1950 104 WP MM BILLIE 1950-11-11 00:00:00 ET 32.4000 177.900 main 2483 __O___________ -1 32.4000 177.900 9 1000 24 54

Digital Typhoon Data and Search

About IBTrACS Database

This database is a web-friendly format of International Best Track Archive for Climate Stewardship (IBTrACS), a global best track data archive curated by NOAA dating back to 1842.

Updated: 2021-10-25